sensor_id;sensor_type;location;lat;lon;timestamp;P1;durP1;ratioP1;P2;durP2;ratioP2
40849;SDS011;26571;41.610;25.380;2023-05-29T00:00:32;4.22;;;3.90;;
40849;SDS011;26571;41.610;25.380;2023-05-29T00:02:58;4.28;;;3.85;;
40849;SDS011;26571;41.610;25.380;2023-05-29T00:05:23;4.53;;;4.18;;
40849;SDS011;26571;41.610;25.380;2023-05-29T00:07:49;3.80;;;3.47;;
40849;SDS011;26571;41.610;25.380;2023-05-29T00:10:15;4.45;;;4.05;;
40849;SDS011;26571;41.610;25.380;2023-05-29T00:12:41;5.03;;;3.78;;
40849;SDS011;26571;41.610;25.380;2023-05-29T00:15:07;5.72;;;4.10;;
40849;SDS011;26571;41.610;25.380;2023-05-29T00:17:34;4.35;;;3.55;;
40849;SDS011;26571;41.610;25.380;2023-05-29T00:20:00;4.68;;;4.28;;
40849;SDS011;26571;41.610;25.380;2023-05-29T00:22:31;5.03;;;3.85;;
40849;SDS011;26571;41.610;25.380;2023-05-29T00:24:57;6.00;;;5.45;;
40849;SDS011;26571;41.610;25.380;2023-05-29T00:27:22;8.30;;;4.63;;
40849;SDS011;26571;41.610;25.380;2023-05-29T00:29:48;5.07;;;3.53;;
40849;SDS011;26571;41.610;25.380;2023-05-29T00:32:13;4.10;;;3.80;;
40849;SDS011;26571;41.610;25.380;2023-05-29T00:34:38;3.92;;;3.65;;
40849;SDS011;26571;41.610;25.380;2023-05-29T00:37:04;5.10;;;4.63;;
40849;SDS011;26571;41.610;25.380;2023-05-29T00:39:29;4.78;;;3.92;;
40849;SDS011;26571;41.610;25.380;2023-05-29T00:41:55;6.45;;;4.30;;
40849;SDS011;26571;41.610;25.380;2023-05-29T00:44:21;7.05;;;4.53;;
40849;SDS011;26571;41.610;25.380;2023-05-29T00:46:47;4.97;;;4.57;;
40849;SDS011;26571;41.610;25.380;2023-05-29T00:49:14;5.28;;;4.85;;
40849;SDS011;26571;41.610;25.380;2023-05-29T00:54:07;6.25;;;4.72;;
40849;SDS011;26571;41.610;25.380;2023-05-29T00:56:38;5.55;;;4.85;;
40849;SDS011;26571;41.610;25.380;2023-05-29T00:59:04;7.18;;;3.95;;
40849;SDS011;26571;41.610;25.380;2023-05-29T01:01:30;8.82;;;4.35;;
40849;SDS011;26571;41.610;25.380;2023-05-29T01:03:59;5.95;;;4.57;;
40849;SDS011;26571;41.610;25.380;2023-05-29T01:08:51;5.57;;;4.60;;
40849;SDS011;26571;41.610;25.380;2023-05-29T01:14:07;5.20;;;4.80;;
40849;SDS011;26571;41.610;25.380;2023-05-29T01:28:44;4.75;;;4.25;;
40849;SDS011;26571;41.610;25.380;2023-05-29T01:31:14;3.97;;;3.65;;
40849;SDS011;26571;41.610;25.380;2023-05-29T01:33:51;4.60;;;3.40;;
40849;SDS011;26571;41.610;25.380;2023-05-29T01:36:18;4.80;;;3.72;;
40849;SDS011;26571;41.610;25.380;2023-05-29T01:38:45;6.40;;;5.07;;
40849;SDS011;26571;41.610;25.380;2023-05-29T01:41:10;4.25;;;3.83;;
40849;SDS011;26571;41.610;25.380;2023-05-29T01:43:36;4.72;;;3.55;;
40849;SDS011;26571;41.610;25.380;2023-05-29T01:46:02;4.53;;;4.22;;
40849;SDS011;26571;41.610;25.380;2023-05-29T01:48:28;6.75;;;3.78;;
40849;SDS011;26571;41.610;25.380;2023-05-29T01:50:54;8.07;;;3.45;;
40849;SDS011;26571;41.610;25.380;2023-05-29T01:53:20;6.45;;;3.55;;
40849;SDS011;26571;41.610;25.380;2023-05-29T01:55:46;4.63;;;4.32;;
40849;SDS011;26571;41.610;25.380;2023-05-29T01:58:11;4.20;;;3.47;;
40849;SDS011;26571;41.610;25.380;2023-05-29T02:00:39;4.10;;;3.35;;
40849;SDS011;26571;41.610;25.380;2023-05-29T02:03:05;3.92;;;3.45;;
40849;SDS011;26571;41.610;25.380;2023-05-29T02:05:30;3.92;;;3.40;;
40849;SDS011;26571;41.610;25.380;2023-05-29T02:07:56;5.68;;;3.17;;
40849;SDS011;26571;41.610;25.380;2023-05-29T02:10:21;6.65;;;3.95;;
40849;SDS011;26571;41.610;25.380;2023-05-29T02:12:46;5.47;;;2.72;;
40849;SDS011;26571;41.610;25.380;2023-05-29T02:15:12;6.82;;;3.30;;
40849;SDS011;26571;41.610;25.380;2023-05-29T02:17:37;3.00;;;2.83;;
40849;SDS011;26571;41.610;25.380;2023-05-29T02:20:03;4.40;;;3.08;;
40849;SDS011;26571;41.610;25.380;2023-05-29T02:22:29;5.80;;;3.58;;
40849;SDS011;26571;41.610;25.380;2023-05-29T02:24:55;3.10;;;2.15;;
40849;SDS011;26571;41.610;25.380;2023-05-29T02:27:20;4.25;;;2.15;;
40849;SDS011;26571;41.610;25.380;2023-05-29T02:29:45;6.32;;;2.88;;
40849;SDS011;26571;41.610;25.380;2023-05-29T02:32:11;2.80;;;2.53;;
40849;SDS011;26571;41.610;25.380;2023-05-29T02:34:36;3.28;;;2.20;;
40849;SDS011;26571;41.610;25.380;2023-05-29T02:37:02;2.33;;;1.92;;
40849;SDS011;26571;41.610;25.380;2023-05-29T02:39:27;4.85;;;2.33;;
40849;SDS011;26571;41.610;25.380;2023-05-29T02:41:53;2.55;;;2.35;;
40849;SDS011;26571;41.610;25.380;2023-05-29T02:44:19;5.40;;;1.52;;
40849;SDS011;26571;41.610;25.380;2023-05-29T02:46:45;3.00;;;1.60;;
40849;SDS011;26571;41.610;25.380;2023-05-29T02:49:11;2.92;;;2.03;;
40849;SDS011;26571;41.610;25.380;2023-05-29T02:51:36;2.50;;;2.30;;
40849;SDS011;26571;41.610;25.380;2023-05-29T02:54:02;2.35;;;1.77;;
40849;SDS011;26571;41.610;25.380;2023-05-29T02:56:27;2.15;;;1.95;;
40849;SDS011;26571;41.610;25.380;2023-05-29T02:58:53;4.68;;;1.70;;
40849;SDS011;26571;41.610;25.380;2023-05-29T03:01:18;1.88;;;1.70;;
40849;SDS011;26571;41.610;25.380;2023-05-29T03:03:44;3.40;;;1.83;;
40849;SDS011;26571;41.610;25.380;2023-05-29T03:06:10;3.10;;;1.35;;
40849;SDS011;26571;41.610;25.380;2023-05-29T03:08:37;3.58;;;1.88;;
40849;SDS011;26571;41.610;25.380;2023-05-29T03:11:09;2.85;;;1.48;;
40849;SDS011;26571;41.610;25.380;2023-05-29T03:13:36;9.82;;;1.65;;
40849;SDS011;26571;41.610;25.380;2023-05-29T03:16:04;2.17;;;1.98;;
40849;SDS011;26571;41.610;25.380;2023-05-29T03:18:29;6.57;;;2.03;;
40849;SDS011;26571;41.610;25.380;2023-05-29T03:20:55;2.70;;;1.90;;
40849;SDS011;26571;41.610;25.380;2023-05-29T03:23:21;3.67;;;2.88;;
40849;SDS011;26571;41.610;25.380;2023-05-29T03:25:46;2.97;;;2.25;;
40849;SDS011;26571;41.610;25.380;2023-05-29T03:28:12;4.18;;;2.30;;
40849;SDS011;26571;41.610;25.380;2023-05-29T03:30:37;4.13;;;2.28;;
40849;SDS011;26571;41.610;25.380;2023-05-29T03:33:02;6.72;;;2.92;;
40849;SDS011;26571;41.610;25.380;2023-05-29T03:35:31;3.15;;;1.23;;
40849;SDS011;26571;41.610;25.380;2023-05-29T03:37:57;3.25;;;1.25;;
40849;SDS011;26571;41.610;25.380;2023-05-29T03:40:22;2.25;;;1.45;;
40849;SDS011;26571;41.610;25.380;2023-05-29T03:42:48;2.00;;;1.85;;
40849;SDS011;26571;41.610;25.380;2023-05-29T03:45:13;1.75;;;1.30;;
40849;SDS011;26571;41.610;25.380;2023-05-29T03:47:39;3.55;;;1.52;;
40849;SDS011;26571;41.610;25.380;2023-05-29T03:50:05;2.15;;;1.02;;
40849;SDS011;26571;41.610;25.380;2023-05-29T03:52:31;2.83;;;1.15;;
40849;SDS011;26571;41.610;25.380;2023-05-29T03:54:56;4.95;;;1.90;;
40849;SDS011;26571;41.610;25.380;2023-05-29T03:57:22;5.10;;;1.08;;
40849;SDS011;26571;41.610;25.380;2023-05-29T03:59:47;2.67;;;1.42;;
40849;SDS011;26571;41.610;25.380;2023-05-29T04:02:12;1.65;;;1.25;;
40849;SDS011;26571;41.610;25.380;2023-05-29T04:04:38;6.88;;;1.17;;
40849;SDS011;26571;41.610;25.380;2023-05-29T04:07:04;0.97;;;0.97;;
40849;SDS011;26571;41.610;25.380;2023-05-29T04:11:57;4.68;;;1.20;;
40849;SDS011;26571;41.610;25.380;2023-05-29T04:14:22;1.60;;;1.48;;
40849;SDS011;26571;41.610;25.380;2023-05-29T04:16:47;2.47;;;1.60;;
40849;SDS011;26571;41.610;25.380;2023-05-29T04:19:13;1.35;;;0.80;;
40849;SDS011;26571;41.610;25.380;2023-05-29T04:21:38;3.42;;;1.38;;
40849;SDS011;26571;41.610;25.380;2023-05-29T04:24:04;4.22;;;2.00;;
40849;SDS011;26571;41.610;25.380;2023-05-29T04:26:29;5.70;;;1.80;;
40849;SDS011;26571;41.610;25.380;2023-05-29T04:28:57;2.55;;;1.63;;
40849;SDS011;26571;41.610;25.380;2023-05-29T04:31:23;2.45;;;1.33;;
40849;SDS011;26571;41.610;25.380;2023-05-29T04:33:54;2.85;;;1.70;;
40849;SDS011;26571;41.610;25.380;2023-05-29T04:36:23;6.57;;;4.75;;
40849;SDS011;26571;41.610;25.380;2023-05-29T04:38:50;4.55;;;4.10;;
40849;SDS011;26571;41.610;25.380;2023-05-29T04:41:16;5.18;;;4.72;;
40849;SDS011;26571;41.610;25.380;2023-05-29T04:43:42;2.00;;;1.70;;
40849;SDS011;26571;41.610;25.380;2023-05-29T04:46:07;1.60;;;1.50;;
40849;SDS011;26571;41.610;25.380;2023-05-29T04:48:37;2.38;;;1.35;;
40849;SDS011;26571;41.610;25.380;2023-05-29T04:51:06;1.13;;;1.02;;
40849;SDS011;26571;41.610;25.380;2023-05-29T04:53:36;1.38;;;1.27;;
40849;SDS011;26571;41.610;25.380;2023-05-29T04:56:08;2.60;;;1.40;;
40849;SDS011;26571;41.610;25.380;2023-05-29T04:58:34;1.00;;;1.00;;
40849;SDS011;26571;41.610;25.380;2023-05-29T05:01:00;1.48;;;1.30;;
40849;SDS011;26571;41.610;25.380;2023-05-29T05:03:28;1.55;;;1.27;;
40849;SDS011;26571;41.610;25.380;2023-05-29T05:05:53;1.50;;;1.40;;
40849;SDS011;26571;41.610;25.380;2023-05-29T05:08:19;3.05;;;1.67;;
40849;SDS011;26571;41.610;25.380;2023-05-29T05:10:45;2.78;;;1.42;;
40849;SDS011;26571;41.610;25.380;2023-05-29T05:13:10;2.33;;;2.13;;
40849;SDS011;26571;41.610;25.380;2023-05-29T05:15:37;2.20;;;1.45;;
40849;SDS011;26571;41.610;25.380;2023-05-29T05:18:02;1.40;;;1.30;;
40849;SDS011;26571;41.610;25.380;2023-05-29T05:20:28;2.55;;;1.27;;
40849;SDS011;26571;41.610;25.380;2023-05-29T05:22:53;3.85;;;2.00;;
40849;SDS011;26571;41.610;25.380;2023-05-29T05:25:18;1.52;;;1.42;;
40849;SDS011;26571;41.610;25.380;2023-05-29T05:27:44;4.13;;;1.88;;
40849;SDS011;26571;41.610;25.380;2023-05-29T05:30:10;6.80;;;1.88;;
40849;SDS011;26571;41.610;25.380;2023-05-29T05:32:35;4.28;;;1.85;;
40849;SDS011;26571;41.610;25.380;2023-05-29T05:35:01;4.68;;;1.65;;
40849;SDS011;26571;41.610;25.380;2023-05-29T05:37:26;2.13;;;1.27;;
40849;SDS011;26571;41.610;25.380;2023-05-29T05:39:52;1.92;;;1.63;;
40849;SDS011;26571;41.610;25.380;2023-05-29T05:42:18;1.97;;;1.37;;
40849;SDS011;26571;41.610;25.380;2023-05-29T05:44:44;2.55;;;2.00;;
40849;SDS011;26571;41.610;25.380;2023-05-29T05:47:10;1.98;;;1.88;;
40849;SDS011;26571;41.610;25.380;2023-05-29T05:49:35;3.00;;;2.45;;
40849;SDS011;26571;41.610;25.380;2023-05-29T05:52:01;1.58;;;1.48;;
40849;SDS011;26571;41.610;25.380;2023-05-29T05:54:26;2.22;;;2.13;;
40849;SDS011;26571;41.610;25.380;2023-05-29T05:56:52;3.08;;;2.05;;
40849;SDS011;26571;41.610;25.380;2023-05-29T05:59:17;5.10;;;1.45;;
40849;SDS011;26571;41.610;25.380;2023-05-29T06:01:43;2.63;;;2.42;;
40849;SDS011;26571;41.610;25.380;2023-05-29T06:04:08;1.83;;;1.70;;
40849;SDS011;26571;41.610;25.380;2023-05-29T06:06:34;3.72;;;1.35;;
40849;SDS011;26571;41.610;25.380;2023-05-29T06:08:59;3.53;;;2.33;;
40849;SDS011;26571;41.610;25.380;2023-05-29T06:11:25;2.40;;;2.20;;
40849;SDS011;26571;41.610;25.380;2023-05-29T06:13:50;4.45;;;1.80;;
40849;SDS011;26571;41.610;25.380;2023-05-29T06:16:17;2.50;;;1.67;;
40849;SDS011;26571;41.610;25.380;2023-05-29T06:18:43;3.97;;;2.03;;
40849;SDS011;26571;41.610;25.380;2023-05-29T06:21:09;3.50;;;2.73;;
40849;SDS011;26571;41.610;25.380;2023-05-29T06:23:35;2.35;;;2.15;;
40849;SDS011;26571;41.610;25.380;2023-05-29T06:26:01;2.22;;;2.03;;
40849;SDS011;26571;41.610;25.380;2023-05-29T06:28:28;2.35;;;2.15;;
40849;SDS011;26571;41.610;25.380;2023-05-29T06:30:53;2.00;;;1.90;;
40849;SDS011;26571;41.610;25.380;2023-05-29T06:33:19;4.57;;;2.10;;
40849;SDS011;26571;41.610;25.380;2023-05-29T06:35:46;2.28;;;2.15;;
40849;SDS011;26571;41.610;25.380;2023-05-29T06:38:12;1.90;;;1.75;;
40849;SDS011;26571;41.610;25.380;2023-05-29T06:40:38;6.78;;;1.77;;
40849;SDS011;26571;41.610;25.380;2023-05-29T06:43:03;2.88;;;1.58;;
40849;SDS011;26571;41.610;25.380;2023-05-29T06:45:29;1.40;;;1.30;;
40849;SDS011;26571;41.610;25.380;2023-05-29T06:47:54;1.50;;;1.40;;
40849;SDS011;26571;41.610;25.380;2023-05-29T06:50:20;2.58;;;1.60;;
40849;SDS011;26571;41.610;25.380;2023-05-29T06:52:45;2.20;;;1.77;;
40849;SDS011;26571;41.610;25.380;2023-05-29T06:55:11;2.53;;;1.48;;
40849;SDS011;26571;41.610;25.380;2023-05-29T06:57:36;1.88;;;1.77;;
40849;SDS011;26571;41.610;25.380;2023-05-29T07:00:03;1.60;;;1.50;;
40849;SDS011;26571;41.610;25.380;2023-05-29T07:02:31;1.42;;;1.33;;
40849;SDS011;26571;41.610;25.380;2023-05-29T07:04:56;3.50;;;2.25;;
40849;SDS011;26571;41.610;25.380;2023-05-29T07:07:22;2.13;;;1.80;;
40849;SDS011;26571;41.610;25.380;2023-05-29T07:09:47;1.48;;;1.35;;
40849;SDS011;26571;41.610;25.380;2023-05-29T07:12:12;2.63;;;1.33;;
40849;SDS011;26571;41.610;25.380;2023-05-29T07:14:38;2.83;;;1.30;;
40849;SDS011;26571;41.610;25.380;2023-05-29T07:17:03;1.55;;;1.30;;
40849;SDS011;26571;41.610;25.380;2023-05-29T07:19:29;1.73;;;1.27;;
40849;SDS011;26571;41.610;25.380;2023-05-29T07:21:54;2.17;;;2.07;;
40849;SDS011;26571;41.610;25.380;2023-05-29T07:24:20;4.47;;;1.77;;
40849;SDS011;26571;41.610;25.380;2023-05-29T07:26:45;2.23;;;2.03;;
40849;SDS011;26571;41.610;25.380;2023-05-29T07:29:11;3.83;;;1.30;;
40849;SDS011;26571;41.610;25.380;2023-05-29T07:31:37;1.70;;;1.60;;
40849;SDS011;26571;41.610;25.380;2023-05-29T07:34:05;2.70;;;1.10;;
40849;SDS011;26571;41.610;25.380;2023-05-29T07:36:30;2.00;;;1.70;;
40849;SDS011;26571;41.610;25.380;2023-05-29T07:38:56;1.70;;;1.35;;
40849;SDS011;26571;41.610;25.380;2023-05-29T07:43:49;2.78;;;1.00;;
40849;SDS011;26571;41.610;25.380;2023-05-29T07:46:17;1.40;;;1.08;;
40849;SDS011;26571;41.610;25.380;2023-05-29T07:48:43;1.17;;;1.17;;
40849;SDS011;26571;41.610;25.380;2023-05-29T07:51:08;0.93;;;0.87;;
40849;SDS011;26571;41.610;25.380;2023-05-29T07:53:35;1.60;;;1.30;;
40849;SDS011;26571;41.610;25.380;2023-05-29T07:56:00;1.37;;;0.90;;
40849;SDS011;26571;41.610;25.380;2023-05-29T07:58:26;1.20;;;1.10;;
40849;SDS011;26571;41.610;25.380;2023-05-29T08:00:52;1.13;;;1.00;;
40849;SDS011;26571;41.610;25.380;2023-05-29T08:03:18;0.80;;;0.80;;
40849;SDS011;26571;41.610;25.380;2023-05-29T08:05:43;1.30;;;0.90;;
40849;SDS011;26571;41.610;25.380;2023-05-29T08:08:09;2.37;;;1.00;;
40849;SDS011;26571;41.610;25.380;2023-05-29T08:10:38;1.63;;;1.40;;
40849;SDS011;26571;41.610;25.380;2023-05-29T08:13:03;1.17;;;1.07;;
40849;SDS011;26571;41.610;25.380;2023-05-29T08:15:29;1.58;;;1.25;;
40849;SDS011;26571;41.610;25.380;2023-05-29T08:17:56;3.08;;;1.25;;
40849;SDS011;26571;41.610;25.380;2023-05-29T08:20:21;1.00;;;1.00;;
40849;SDS011;26571;41.610;25.380;2023-05-29T08:22:47;0.93;;;0.93;;
40849;SDS011;26571;41.610;25.380;2023-05-29T08:25:12;1.17;;;1.07;;
40849;SDS011;26571;41.610;25.380;2023-05-29T08:27:38;0.97;;;0.87;;
40849;SDS011;26571;41.610;25.380;2023-05-29T08:30:03;1.83;;;0.90;;
40849;SDS011;26571;41.610;25.380;2023-05-29T08:32:29;1.90;;;1.20;;
40849;SDS011;26571;41.610;25.380;2023-05-29T08:34:54;5.83;;;1.77;;
40849;SDS011;26571;41.610;25.380;2023-05-29T08:37:20;3.60;;;1.17;;
40849;SDS011;26571;41.610;25.380;2023-05-29T08:39:46;2.53;;;1.10;;
40849;SDS011;26571;41.610;25.380;2023-05-29T08:44:46;3.97;;;1.25;;
40849;SDS011;26571;41.610;25.380;2023-05-29T08:47:14;2.35;;;1.00;;
40849;SDS011;26571;41.610;25.380;2023-05-29T08:49:45;3.65;;;1.30;;
40849;SDS011;26571;41.610;25.380;2023-05-29T08:52:16;1.58;;;1.25;;
40849;SDS011;26571;41.610;25.380;2023-05-29T08:54:43;1.38;;;1.27;;
40849;SDS011;26571;41.610;25.380;2023-05-29T08:57:10;1.80;;;1.70;;
40849;SDS011;26571;41.610;25.380;2023-05-29T08:59:37;2.25;;;1.67;;
40849;SDS011;26571;41.610;25.380;2023-05-29T09:02:06;1.50;;;1.42;;
40849;SDS011;26571;41.610;25.380;2023-05-29T09:04:32;0.93;;;0.93;;
40849;SDS011;26571;41.610;25.380;2023-05-29T09:06:58;1.23;;;1.13;;
40849;SDS011;26571;41.610;25.380;2023-05-29T09:09:24;1.58;;;1.40;;
40849;SDS011;26571;41.610;25.380;2023-05-29T09:11:52;1.23;;;1.10;;
40849;SDS011;26571;41.610;25.380;2023-05-29T09:14:34;4.45;;;1.50;;
40849;SDS011;26571;41.610;25.380;2023-05-29T09:16:59;2.15;;;1.50;;
40849;SDS011;26571;41.610;25.380;2023-05-29T09:19:25;6.20;;;1.20;;
40849;SDS011;26571;41.610;25.380;2023-05-29T09:21:51;1.70;;;1.60;;
40849;SDS011;26571;41.610;25.380;2023-05-29T09:24:16;2.20;;;1.63;;
40849;SDS011;26571;41.610;25.380;2023-05-29T09:26:48;6.33;;;1.47;;
40849;SDS011;26571;41.610;25.380;2023-05-29T09:29:15;4.70;;;2.05;;
40849;SDS011;26571;41.610;25.380;2023-05-29T09:31:47;1.48;;;1.48;;
40849;SDS011;26571;41.610;25.380;2023-05-29T09:34:13;5.20;;;2.20;;
40849;SDS011;26571;41.610;25.380;2023-05-29T09:36:38;2.50;;;1.50;;
40849;SDS011;26571;41.610;25.380;2023-05-29T09:39:04;3.03;;;1.53;;
40849;SDS011;26571;41.610;25.380;2023-05-29T09:41:29;1.52;;;1.42;;
40849;SDS011;26571;41.610;25.380;2023-05-29T09:43:59;2.75;;;1.92;;
40849;SDS011;26571;41.610;25.380;2023-05-29T09:46:25;1.38;;;1.27;;
40849;SDS011;26571;41.610;25.380;2023-05-29T09:48:51;2.58;;;1.70;;
40849;SDS011;26571;41.610;25.380;2023-05-29T09:51:23;3.10;;;1.80;;
40849;SDS011;26571;41.610;25.380;2023-05-29T09:53:49;1.90;;;1.80;;
40849;SDS011;26571;41.610;25.380;2023-05-29T09:56:18;4.30;;;2.40;;
40849;SDS011;26571;41.610;25.380;2023-05-29T09:58:49;4.28;;;2.20;;
40849;SDS011;26571;41.610;25.380;2023-05-29T10:01:17;2.80;;;2.45;;
40849;SDS011;26571;41.610;25.380;2023-05-29T10:03:43;2.72;;;2.55;;
40849;SDS011;26571;41.610;25.380;2023-05-29T10:06:10;4.27;;;1.77;;
40849;SDS011;26571;41.610;25.380;2023-05-29T10:08:42;8.00;;;3.17;;
40849;SDS011;26571;41.610;25.380;2023-05-29T10:11:19;2.67;;;2.47;;
40849;SDS011;26571;41.610;25.380;2023-05-29T10:13:49;1.83;;;1.67;;
40849;SDS011;26571;41.610;25.380;2023-05-29T10:16:17;3.75;;;1.42;;
40849;SDS011;26571;41.610;25.380;2023-05-29T10:18:55;1.42;;;1.25;;
40849;SDS011;26571;41.610;25.380;2023-05-29T10:21:22;3.17;;;2.08;;
40849;SDS011;26571;41.610;25.380;2023-05-29T10:23:51;4.50;;;1.23;;
40849;SDS011;26571;41.610;25.380;2023-05-29T10:26:21;3.03;;;1.50;;
40849;SDS011;26571;41.610;25.380;2023-05-29T10:31:46;5.65;;;1.38;;
40849;SDS011;26571;41.610;25.380;2023-05-29T10:40:04;1.38;;;1.27;;
40849;SDS011;26571;41.610;25.380;2023-05-29T10:45:11;2.80;;;2.15;;
40849;SDS011;26571;41.610;25.380;2023-05-29T10:48:35;1.17;;;1.05;;
40849;SDS011;26571;41.610;25.380;2023-05-29T10:53:08;1.85;;;0.98;;
40849;SDS011;26571;41.610;25.380;2023-05-29T10:55:38;3.40;;;1.45;;
40849;SDS011;26571;41.610;25.380;2023-05-29T10:58:05;1.35;;;1.23;;
40849;SDS011;26571;41.610;25.380;2023-05-29T11:00:31;1.40;;;0.95;;
40849;SDS011;26571;41.610;25.380;2023-05-29T11:02:58;2.65;;;1.05;;
40849;SDS011;26571;41.610;25.380;2023-05-29T11:05:27;2.90;;;2.10;;
40849;SDS011;26571;41.610;25.380;2023-05-29T11:07:55;2.08;;;0.77;;
40849;SDS011;26571;41.610;25.380;2023-05-29T11:13:23;2.78;;;0.50;;
40849;SDS011;26571;41.610;25.380;2023-05-29T11:19:14;0.90;;;0.30;;
40849;SDS011;26571;41.610;25.380;2023-05-29T11:24:32;1.48;;;1.38;;
40849;SDS011;26571;41.610;25.380;2023-05-29T11:26:58;2.38;;;0.50;;
40849;SDS011;26571;41.610;25.380;2023-05-29T11:29:29;0.80;;;0.50;;
40849;SDS011;26571;41.610;25.380;2023-05-29T11:31:58;1.13;;;0.30;;
40849;SDS011;26571;41.610;25.380;2023-05-29T11:34:28;0.65;;;0.38;;
40849;SDS011;26571;41.610;25.380;2023-05-29T11:36:56;2.78;;;0.50;;
40849;SDS011;26571;41.610;25.380;2023-05-29T11:39:22;2.78;;;0.55;;
40849;SDS011;26571;41.610;25.380;2023-05-29T11:41:51;1.02;;;0.50;;
40849;SDS011;26571;41.610;25.380;2023-05-29T11:44:18;1.73;;;0.60;;
40849;SDS011;26571;41.610;25.380;2023-05-29T11:46:43;3.22;;;1.40;;
40849;SDS011;26571;41.610;25.380;2023-05-29T11:49:09;3.45;;;0.52;;
40849;SDS011;26571;41.610;25.380;2023-05-29T11:51:34;2.83;;;0.52;;
40849;SDS011;26571;41.610;25.380;2023-05-29T11:54:00;2.42;;;0.45;;
40849;SDS011;26571;41.610;25.380;2023-05-29T11:56:26;0.98;;;0.47;;
40849;SDS011;26571;41.610;25.380;2023-05-29T11:58:52;4.75;;;0.70;;
40849;SDS011;26571;41.610;25.380;2023-05-29T12:01:23;2.03;;;0.77;;
40849;SDS011;26571;41.610;25.380;2023-05-29T12:03:50;2.38;;;1.00;;
40849;SDS011;26571;41.610;25.380;2023-05-29T12:06:15;7.15;;;1.20;;
40849;SDS011;26571;41.610;25.380;2023-05-29T12:08:41;10.85;;;2.33;;
40849;SDS011;26571;41.610;25.380;2023-05-29T12:11:06;2.65;;;0.85;;
40849;SDS011;26571;41.610;25.380;2023-05-29T12:13:32;4.43;;;1.23;;
40849;SDS011;26571;41.610;25.380;2023-05-29T12:15:59;4.32;;;1.00;;
40849;SDS011;26571;41.610;25.380;2023-05-29T12:18:28;3.65;;;1.13;;
40849;SDS011;26571;41.610;25.380;2023-05-29T12:20:59;2.72;;;0.90;;
40849;SDS011;26571;41.610;25.380;2023-05-29T12:23:27;7.65;;;2.78;;
40849;SDS011;26571;41.610;25.380;2023-05-29T12:25:53;1.52;;;1.02;;
40849;SDS011;26571;41.610;25.380;2023-05-29T12:28:19;2.10;;;1.70;;
40849;SDS011;26571;41.610;25.380;2023-05-29T12:30:46;2.75;;;1.05;;
40849;SDS011;26571;41.610;25.380;2023-05-29T12:33:33;1.10;;;0.70;;
40849;SDS011;26571;41.610;25.380;2023-05-29T12:36:05;4.00;;;0.85;;
40849;SDS011;26571;41.610;25.380;2023-05-29T12:38:33;2.10;;;1.05;;
40849;SDS011;26571;41.610;25.380;2023-05-29T12:41:01;0.70;;;0.70;;
40849;SDS011;26571;41.610;25.380;2023-05-29T12:43:27;2.15;;;0.77;;
40849;SDS011;26571;41.610;25.380;2023-05-29T12:45:56;3.30;;;0.77;;
40849;SDS011;26571;41.610;25.380;2023-05-29T12:48:25;1.60;;;0.70;;
40849;SDS011;26571;41.610;25.380;2023-05-29T12:50:51;1.08;;;0.55;;
40849;SDS011;26571;41.610;25.380;2023-05-29T12:53:17;3.97;;;0.70;;
40849;SDS011;26571;41.610;25.380;2023-05-29T12:55:43;0.73;;;0.70;;
40849;SDS011;26571;41.610;25.380;2023-05-29T12:58:10;2.53;;;1.02;;
40849;SDS011;26571;41.610;25.380;2023-05-29T13:00:38;2.22;;;0.85;;
40849;SDS011;26571;41.610;25.380;2023-05-29T13:03:05;6.10;;;2.47;;
40849;SDS011;26571;41.610;25.380;2023-05-29T13:05:31;4.40;;;1.13;;
40849;SDS011;26571;41.610;25.380;2023-05-29T13:07:57;2.38;;;0.98;;
40849;SDS011;26571;41.610;25.380;2023-05-29T13:10:23;4.80;;;2.95;;
40849;SDS011;26571;41.610;25.380;2023-05-29T13:12:49;1.88;;;1.33;;
40849;SDS011;26571;41.610;25.380;2023-05-29T13:15:19;4.25;;;1.10;;
40849;SDS011;26571;41.610;25.380;2023-05-29T13:17:44;1.17;;;0.55;;
40849;SDS011;26571;41.610;25.380;2023-05-29T13:20:10;14.95;;;1.95;;
40849;SDS011;26571;41.610;25.380;2023-05-29T13:22:38;2.50;;;1.00;;
40849;SDS011;26571;41.610;25.380;2023-05-29T13:25:04;2.20;;;0.73;;
40849;SDS011;26571;41.610;25.380;2023-05-29T13:27:34;3.72;;;1.17;;
40849;SDS011;26571;41.610;25.380;2023-05-29T13:30:04;7.35;;;1.10;;
40849;SDS011;26571;41.610;25.380;2023-05-29T13:32:30;3.13;;;0.77;;
40849;SDS011;26571;41.610;25.380;2023-05-29T13:34:56;2.92;;;0.73;;
40849;SDS011;26571;41.610;25.380;2023-05-29T13:37:22;5.53;;;1.85;;
40849;SDS011;26571;41.610;25.380;2023-05-29T13:39:48;1.33;;;0.50;;
40849;SDS011;26571;41.610;25.380;2023-05-29T13:42:13;3.90;;;0.70;;
40849;SDS011;26571;41.610;25.380;2023-05-29T13:44:39;3.00;;;0.80;;
40849;SDS011;26571;41.610;25.380;2023-05-29T13:47:05;2.30;;;0.90;;
40849;SDS011;26571;41.610;25.380;2023-05-29T13:49:32;2.10;;;0.70;;
40849;SDS011;26571;41.610;25.380;2023-05-29T13:51:58;5.50;;;0.50;;
40849;SDS011;26571;41.610;25.380;2023-05-29T13:54:23;1.58;;;1.27;;
40849;SDS011;26571;41.610;25.380;2023-05-29T13:56:49;0.65;;;0.40;;
40849;SDS011;26571;41.610;25.380;2023-05-29T13:59:14;2.00;;;0.65;;
40849;SDS011;26571;41.610;25.380;2023-05-29T14:01:40;1.23;;;0.50;;
40849;SDS011;26571;41.610;25.380;2023-05-29T14:04:06;2.45;;;0.70;;
40849;SDS011;26571;41.610;25.380;2023-05-29T14:06:32;2.88;;;0.88;;
40849;SDS011;26571;41.610;25.380;2023-05-29T14:08:58;1.75;;;0.40;;
40849;SDS011;26571;41.610;25.380;2023-05-29T14:11:24;0.70;;;0.60;;
40849;SDS011;26571;41.610;25.380;2023-05-29T14:13:50;0.70;;;0.50;;
40849;SDS011;26571;41.610;25.380;2023-05-29T14:16:15;2.28;;;0.60;;
40849;SDS011;26571;41.610;25.380;2023-05-29T14:18:41;2.42;;;0.60;;
40849;SDS011;26571;41.610;25.380;2023-05-29T14:21:07;2.38;;;0.63;;
40849;SDS011;26571;41.610;25.380;2023-05-29T14:23:32;1.20;;;0.63;;
40849;SDS011;26571;41.610;25.380;2023-05-29T14:25:59;3.38;;;0.52;;
40849;SDS011;26571;41.610;25.380;2023-05-29T14:28:24;3.83;;;0.60;;
40849;SDS011;26571;41.610;25.380;2023-05-29T14:30:50;1.23;;;0.52;;
40849;SDS011;26571;41.610;25.380;2023-05-29T14:33:15;2.05;;;0.50;;
40849;SDS011;26571;41.610;25.380;2023-05-29T14:35:41;1.95;;;1.17;;
40849;SDS011;26571;41.610;25.380;2023-05-29T14:38:06;5.35;;;1.00;;
40849;SDS011;26571;41.610;25.380;2023-05-29T14:40:31;2.15;;;0.60;;
40849;SDS011;26571;41.610;25.380;2023-05-29T14:45:24;0.68;;;0.68;;
40849;SDS011;26571;41.610;25.380;2023-05-29T14:47:50;3.25;;;1.00;;
40849;SDS011;26571;41.610;25.380;2023-05-29T14:50:16;1.25;;;0.70;;
40849;SDS011;26571;41.610;25.380;2023-05-29T14:52:41;4.78;;;1.35;;
40849;SDS011;26571;41.610;25.380;2023-05-29T14:55:07;0.90;;;0.90;;
40849;SDS011;26571;41.610;25.380;2023-05-29T14:57:32;1.88;;;0.82;;
40849;SDS011;26571;41.610;25.380;2023-05-29T15:02:25;1.70;;;0.70;;
40849;SDS011;26571;41.610;25.380;2023-05-29T15:04:50;0.77;;;0.77;;
40849;SDS011;26571;41.610;25.380;2023-05-29T15:07:16;3.23;;;1.33;;
40849;SDS011;26571;41.610;25.380;2023-05-29T15:09:42;1.47;;;0.90;;
40849;SDS011;26571;41.610;25.380;2023-05-29T15:12:08;1.23;;;0.68;;
40849;SDS011;26571;41.610;25.380;2023-05-29T15:14:34;2.23;;;1.10;;
40849;SDS011;26571;41.610;25.380;2023-05-29T15:17:00;2.42;;;1.33;;
40849;SDS011;26571;41.610;25.380;2023-05-29T15:19:26;5.47;;;0.90;;
40849;SDS011;26571;41.610;25.380;2023-05-29T15:21:51;1.33;;;1.23;;
40849;SDS011;26571;41.610;25.380;2023-05-29T15:24:17;1.10;;;1.00;;